sensor_id;sensor_type;location;lat;lon;timestamp;pressure;altitude;pressure_sealevel;temperature;humidity
56928;BME280;60850;52.502;13.426;2024-02-21T00:00:02;101654.03;;;8.01;100.00
56928;BME280;60850;52.502;13.426;2024-02-21T00:02:30;101647.84;;;7.94;100.00
56928;BME280;60850;52.502;13.426;2024-02-21T00:04:58;101647.84;;;8.05;100.00
56928;BME280;60850;52.502;13.426;2024-02-21T00:07:24;101646.94;;;7.95;100.00
56928;BME280;60850;52.502;13.426;2024-02-21T00:09:53;101643.38;;;8.08;100.00
56928;BME280;60850;52.502;13.426;2024-02-21T00:12:20;101643.41;;;8.02;100.00
56928;BME280;60850;52.502;13.426;2024-02-21T00:14:47;101637.16;;;8.24;100.00
56928;BME280;60850;52.502;13.426;2024-02-21T00:17:14;101639.84;;;8.08;100.00
56928;BME280;60850;52.502;13.426;2024-02-21T00:19:41;101636.31;;;8.03;100.00
56928;BME280;60850;52.502;13.426;2024-02-21T00:22:08;101639.88;;;7.97;100.00
56928;BME280;60850;52.502;13.426;2024-02-21T00:24:35;101630.13;;;8.05;100.00
56928;BME280;60850;52.502;13.426;2024-02-21T00:27:04;101622.19;;;8.04;100.00
56928;BME280;60850;52.502;13.426;2024-02-21T00:29:31;101631.88;;;8.12;100.00
56928;BME280;60850;52.502;13.426;2024-02-21T00:31:59;101624.78;;;8.14;100.00
56928;BME280;60850;52.502;13.426;2024-02-21T00:34:27;101616.88;;;7.97;100.00
56928;BME280;60850;52.502;13.426;2024-02-21T00:36:53;101621.28;;;7.95;100.00
56928;BME280;60850;52.502;13.426;2024-02-21T00:39:21;101619.50;;;8.02;100.00
56928;BME280;60850;52.502;13.426;2024-02-21T00:41:47;101621.25;;;8.09;100.00
56928;BME280;60850;52.502;13.426;2024-02-21T00:44:16;101615.06;;;8.15;100.00
56928;BME280;60850;52.502;13.426;2024-02-21T00:46:43;101609.75;;;8.03;100.00
56928;BME280;60850;52.502;13.426;2024-02-21T00:49:10;101617.75;;;7.99;100.00
56928;BME280;60850;52.502;13.426;2024-02-21T00:51:37;101614.22;;;7.99;100.00
56928;BME280;60850;52.502;13.426;2024-02-21T00:54:04;101606.25;;;7.97;100.00
56928;BME280;60850;52.502;13.426;2024-02-21T00:56:31;101606.25;;;7.93;100.00
56928;BME280;60850;52.502;13.426;2024-02-21T00:58:59;101604.44;;;8.10;100.00
56928;BME280;60850;52.502;13.426;2024-02-21T01:01:27;101601.81;;;7.99;100.00
56928;BME280;60850;52.502;13.426;2024-02-21T01:03:54;101596.53;;;7.83;100.00
56928;BME280;60850;52.502;13.426;2024-02-21T01:06:21;101594.75;;;7.92;100.00
56928;BME280;60850;52.502;13.426;2024-02-21T01:08:49;101590.31;;;7.97;100.00
56928;BME280;60850;52.502;13.426;2024-02-21T01:11:16;101590.31;;;8.05;100.00
56928;BME280;60850;52.502;13.426;2024-02-21T01:13:44;101584.97;;;8.07;100.00
56928;BME280;60850;52.502;13.426;2024-02-21T01:16:11;101586.75;;;8.03;100.00
56928;BME280;60850;52.502;13.426;2024-02-21T01:18:39;101579.69;;;7.97;100.00
56928;BME280;60850;52.502;13.426;2024-02-21T01:21:06;101584.13;;;7.92;100.00
56928;BME280;60850;52.502;13.426;2024-02-21T01:23:34;101581.50;;;7.85;100.00
56928;BME280;60850;52.502;13.426;2024-02-21T01:26:02;101582.34;;;7.93;100.00
56928;BME280;60850;52.502;13.426;2024-02-21T01:28:29;101583.22;;;7.95;100.00
56928;BME280;60850;52.502;13.426;2024-02-21T01:30:56;101584.09;;;8.03;100.00
56928;BME280;60850;52.502;13.426;2024-02-21T01:33:23;101573.47;;;8.06;100.00
56928;BME280;60850;52.502;13.426;2024-02-21T01:35:51;101562.88;;;8.05;100.00
56928;BME280;60850;52.502;13.426;2024-02-21T01:38:18;101569.97;;;7.89;100.00
56928;BME280;60850;52.502;13.426;2024-02-21T01:40:46;101568.22;;;7.91;100.00
56928;BME280;60850;52.502;13.426;2024-02-21T01:43:17;101572.63;;;7.89;100.00
56928;BME280;60850;52.502;13.426;2024-02-21T01:45:48;101566.44;;;7.90;100.00
56928;BME280;60850;52.502;13.426;2024-02-21T01:48:16;101562.88;;;7.94;100.00
56928;BME280;60850;52.502;13.426;2024-02-21T01:50:44;101561.97;;;8.03;100.00
56928;BME280;60850;52.502;13.426;2024-02-21T01:53:14;101559.31;;;8.07;100.00
56928;BME280;60850;52.502;13.426;2024-02-21T01:55:44;101555.78;;;8.02;100.00
56928;BME280;60850;52.502;13.426;2024-02-21T01:58:12;101561.06;;;8.14;100.00
56928;BME280;60850;52.502;13.426;2024-02-21T02:00:40;101559.31;;;8.04;100.00
56928;BME280;60850;52.502;13.426;2024-02-21T02:03:10;101550.47;;;8.05;100.00
56928;BME280;60850;52.502;13.426;2024-02-21T02:05:44;101548.72;;;7.93;100.00
56928;BME280;60850;52.502;13.426;2024-02-21T02:08:13;101544.25;;;8.08;100.00
56928;BME280;60850;52.502;13.426;2024-02-21T02:10:40;101533.59;;;8.14;100.00
56928;BME280;60850;52.502;13.426;2024-02-21T02:13:08;101537.16;;;8.11;100.00
56928;BME280;60850;52.502;13.426;2024-02-21T02:15:39;101530.06;;;8.18;100.00
56928;BME280;60850;52.502;13.426;2024-02-21T02:18:06;101527.47;;;8.04;100.00
56928;BME280;60850;52.502;13.426;2024-02-21T02:20:33;101535.44;;;7.99;100.00
56928;BME280;60850;52.502;13.426;2024-02-21T02:23:06;101530.94;;;8.18;100.00
56928;BME280;60850;52.502;13.426;2024-02-21T02:25:35;101522.91;;;8.24;100.00
56928;BME280;60850;52.502;13.426;2024-02-21T02:28:03;101523.91;;;8.05;100.00
56928;BME280;60850;52.502;13.426;2024-02-21T02:30:32;101527.41;;;8.10;100.00
56928;BME280;60850;52.502;13.426;2024-02-21T02:32:59;101517.66;;;8.15;100.00
56928;BME280;60850;52.502;13.426;2024-02-21T02:35:26;101515.94;;;8.01;100.00
56928;BME280;60850;52.502;13.426;2024-02-21T02:37:53;101515.09;;;7.94;100.00
56928;BME280;60850;52.502;13.426;2024-02-21T02:40:20;101513.28;;;7.96;100.00
56928;BME280;60850;52.502;13.426;2024-02-21T02:42:49;101515.97;;;7.96;100.00
56928;BME280;60850;52.502;13.426;2024-02-21T02:45:16;101516.03;;;7.82;100.00
56928;BME280;60850;52.502;13.426;2024-02-21T02:47:44;101520.44;;;7.79;100.00
56928;BME280;60850;52.502;13.426;2024-02-21T02:50:12;101519.56;;;7.74;100.00
56928;BME280;60850;52.502;13.426;2024-02-21T02:52:39;101515.13;;;7.85;100.00
56928;BME280;60850;52.502;13.426;2024-02-21T02:55:07;101499.22;;;7.77;100.00
56928;BME280;60850;52.502;13.426;2024-02-21T02:57:34;101500.13;;;7.71;100.00
56928;BME280;60850;52.502;13.426;2024-02-21T03:00:03;101503.63;;;7.74;100.00
56928;BME280;60850;52.502;13.426;2024-02-21T03:02:32;101504.53;;;7.68;100.00
56928;BME280;60850;52.502;13.426;2024-02-21T03:04:59;101493.94;;;7.69;100.00
56928;BME280;60850;52.502;13.426;2024-02-21T03:07:26;101492.16;;;7.70;100.00
56928;BME280;60850;52.502;13.426;2024-02-21T03:09:53;101489.50;;;7.73;100.00
56928;BME280;60850;52.502;13.426;2024-02-21T03:12:20;101490.41;;;7.69;100.00
56928;BME280;60850;52.502;13.426;2024-02-21T03:14:53;101486.88;;;7.62;100.00
56928;BME280;60850;52.502;13.426;2024-02-21T03:17:22;101478.88;;;7.67;100.00
56928;BME280;60850;52.502;13.426;2024-02-21T03:19:49;101478.03;;;7.56;100.00
56928;BME280;60850;52.502;13.426;2024-02-21T03:22:16;101474.44;;;7.72;100.00
56928;BME280;60850;52.502;13.426;2024-02-21T03:24:44;101467.38;;;7.66;100.00
56928;BME280;60850;52.502;13.426;2024-02-21T03:27:11;101474.50;;;7.57;100.00
56928;BME280;60850;52.502;13.426;2024-02-21T03:29:38;101470.94;;;7.65;100.00
56928;BME280;60850;52.502;13.426;2024-02-21T03:32:05;101468.28;;;7.67;100.00
56928;BME280;60850;52.502;13.426;2024-02-21T03:34:34;101469.09;;;7.81;100.00
56928;BME280;60850;52.502;13.426;2024-02-21T03:37:01;101461.16;;;7.74;100.00
56928;BME280;60850;52.502;13.426;2024-02-21T03:39:30;101474.47;;;7.67;100.00
56928;BME280;60850;52.502;13.426;2024-02-21T03:41:58;101465.63;;;7.68;100.00
56928;BME280;60850;52.502;13.426;2024-02-21T03:44:26;101473.59;;;7.61;100.00
56928;BME280;60850;52.502;13.426;2024-02-21T03:46:53;101465.63;;;7.68;100.00
56928;BME280;60850;52.502;13.426;2024-02-21T03:49:20;101457.69;;;7.64;100.00
56928;BME280;60850;52.502;13.426;2024-02-21T03:51:49;101459.44;;;7.65;100.00
56928;BME280;60850;52.502;13.426;2024-02-21T03:54:16;101449.72;;;7.61;100.00
56928;BME280;60850;52.502;13.426;2024-02-21T03:56:43;101452.34;;;7.65;100.00
56928;BME280;60850;52.502;13.426;2024-02-21T03:59:10;101458.53;;;7.67;100.00
56928;BME280;60850;52.502;13.426;2024-02-21T04:01:38;101443.50;;;7.60;100.00
56928;BME280;60850;52.502;13.426;2024-02-21T04:04:04;101439.13;;;7.62;100.00
56928;BME280;60850;52.502;13.426;2024-02-21T04:06:32;101450.66;;;7.48;100.00
56928;BME280;60850;52.502;13.426;2024-02-21T04:09:01;101447.97;;;7.55;100.00
56928;BME280;60850;52.502;13.426;2024-02-21T04:11:28;101438.28;;;7.43;100.00
56928;BME280;60850;52.502;13.426;2024-02-21T04:13:55;101436.50;;;7.44;100.00
56928;BME280;60850;52.502;13.426;2024-02-21T04:16:22;101440.00;;;7.54;100.00
56928;BME280;60850;52.502;13.426;2024-02-21T04:18:49;101430.31;;;7.42;100.00
56928;BME280;60850;52.502;13.426;2024-02-21T04:21:17;101423.25;;;7.41;100.00
56928;BME280;60850;52.502;13.426;2024-02-21T04:23:44;101407.34;;;7.38;100.00
56928;BME280;60850;52.502;13.426;2024-02-21T04:26:12;101411.78;;;7.30;100.00
56928;BME280;60850;52.502;13.426;2024-02-21T04:28:39;101405.59;;;7.35;100.00
56928;BME280;60850;52.502;13.426;2024-02-21T04:31:06;101406.44;;;7.37;100.00
56928;BME280;60850;52.502;13.426;2024-02-21T04:33:33;101395.84;;;7.40;100.00
56928;BME280;60850;52.502;13.426;2024-02-21T04:36:00;101399.41;;;7.35;100.00
56928;BME280;60850;52.502;13.426;2024-02-21T04:38:27;101397.63;;;7.35;100.00
56928;BME280;60850;52.502;13.426;2024-02-21T04:40:55;101378.16;;;7.36;100.00
56928;BME280;60850;52.502;13.426;2024-02-21T04:43:26;101360.50;;;7.34;100.00
56928;BME280;60850;52.502;13.426;2024-02-21T04:45:53;101358.75;;;7.22;100.00
56928;BME280;60850;52.502;13.426;2024-02-21T04:48:20;101354.28;;;7.32;100.00
56928;BME280;60850;52.502;13.426;2024-02-21T04:50:47;101358.72;;;7.33;100.00
56928;BME280;60850;52.502;13.426;2024-02-21T04:53:14;101367.56;;;7.33;100.00
56928;BME280;60850;52.502;13.426;2024-02-21T04:55:41;101368.41;;;7.38;100.00
56928;BME280;60850;52.502;13.426;2024-02-21T04:58:08;101363.13;;;7.43;100.00
56928;BME280;60850;52.502;13.426;2024-02-21T05:00:37;101342.78;;;7.37;100.00
56928;BME280;60850;52.502;13.426;2024-02-21T05:03:04;101361.38;;;7.31;100.00
56928;BME280;60850;52.502;13.426;2024-02-21T05:05:31;101350.81;;;7.21;100.00
56928;BME280;60850;52.502;13.426;2024-02-21T05:07:58;101350.81;;;7.27;100.00
56928;BME280;60850;52.502;13.426;2024-02-21T05:10:25;101350.81;;;7.27;100.00
56928;BME280;60850;52.502;13.426;2024-02-21T05:12:52;101346.34;;;7.36;100.00
56928;BME280;60850;52.502;13.426;2024-02-21T05:15:20;101349.03;;;7.29;100.00
56928;BME280;60850;52.502;13.426;2024-02-21T05:17:48;101345.47;;;7.30;100.00
56928;BME280;60850;52.502;13.426;2024-02-21T05:20:15;101345.50;;;7.27;100.00
56928;BME280;60850;52.502;13.426;2024-02-21T05:22:42;101352.56;;;7.23;100.00
56928;BME280;60850;52.502;13.426;2024-02-21T05:25:09;101349.03;;;7.21;100.00
56928;BME280;60850;52.502;13.426;2024-02-21T05:27:36;101349.91;;;7.29;100.00
56928;BME280;60850;52.502;13.426;2024-02-21T05:30:05;101351.66;;;7.33;100.00
56928;BME280;60850;52.502;13.426;2024-02-21T05:32:33;101345.47;;;7.31;100.00
56928;BME280;60850;52.502;13.426;2024-02-21T05:35:01;101346.34;;;7.32;100.00
56928;BME280;60850;52.502;13.426;2024-02-21T05:37:28;101342.81;;;7.34;100.00
56928;BME280;60850;52.502;13.426;2024-02-21T05:39:56;101352.53;;;7.34;100.00
56928;BME280;60850;52.502;13.426;2024-02-21T05:42:22;101358.72;;;7.40;100.00
56928;BME280;60850;52.502;13.426;2024-02-21T05:44:50;101346.31;;;7.47;100.00
56928;BME280;60850;52.502;13.426;2024-02-21T05:47:16;101338.38;;;7.41;100.00
56928;BME280;60850;52.502;13.426;2024-02-21T05:49:46;101333.03;;;7.47;100.00
56928;BME280;60850;52.502;13.426;2024-02-21T05:52:15;101341.00;;;7.44;100.00
56928;BME280;60850;52.502;13.426;2024-02-21T05:54:42;101338.34;;;7.44;100.00
56928;BME280;60850;52.502;13.426;2024-02-21T05:57:09;101336.59;;;7.43;100.00
56928;BME280;60850;52.502;13.426;2024-02-21T05:59:37;101334.78;;;7.47;100.00
56928;BME280;60850;52.502;13.426;2024-02-21T06:02:05;101326.84;;;7.48;100.00
56928;BME280;60850;52.502;13.426;2024-02-21T06:04:32;101337.44;;;7.47;100.00
56928;BME280;60850;52.502;13.426;2024-02-21T06:07:00;101322.44;;;7.47;100.00
56928;BME280;60850;52.502;13.426;2024-02-21T06:09:28;101319.75;;;7.49;100.00
56928;BME280;60850;52.502;13.426;2024-02-21T06:11:55;101321.53;;;7.48;100.00
56928;BME280;60850;52.502;13.426;2024-02-21T06:14:22;101318.00;;;7.44;100.00
56928;BME280;60850;52.502;13.426;2024-02-21T06:16:49;101314.47;;;7.47;100.00
56928;BME280;60850;52.502;13.426;2024-02-21T06:19:16;101318.84;;;7.51;100.00
56928;BME280;60850;52.502;13.426;2024-02-21T06:21:43;101311.81;;;7.46;100.00
56928;BME280;60850;52.502;13.426;2024-02-21T06:24:10;101303.84;;;7.46;100.00
56928;BME280;60850;52.502;13.426;2024-02-21T06:26:40;101301.22;;;7.47;100.00
56928;BME280;60850;52.502;13.426;2024-02-21T06:29:07;101306.50;;;7.47;100.00
56928;BME280;60850;52.502;13.426;2024-02-21T06:31:35;101304.72;;;7.46;100.00
56928;BME280;60850;52.502;13.426;2024-02-21T06:34:02;101312.72;;;7.43;100.00
56928;BME280;60850;52.502;13.426;2024-02-21T06:36:30;101311.84;;;7.42;100.00
56928;BME280;60850;52.502;13.426;2024-02-21T06:38:58;101308.28;;;7.39;100.00
56928;BME280;60850;52.502;13.426;2024-02-21T06:41:25;101303.88;;;7.38;100.00
56928;BME280;60850;52.502;13.426;2024-02-21T06:43:54;101313.59;;;7.42;100.00
56928;BME280;60850;52.502;13.426;2024-02-21T06:46:24;101316.25;;;7.39;100.00
56928;BME280;60850;52.502;13.426;2024-02-21T06:48:52;101309.19;;;7.36;100.00
56928;BME280;60850;52.502;13.426;2024-02-21T06:51:19;101317.16;;;7.38;100.00
56928;BME280;60850;52.502;13.426;2024-02-21T06:53:46;101316.22;;;7.47;100.00
56928;BME280;60850;52.502;13.426;2024-02-21T06:56:13;101317.03;;;7.59;100.00
56928;BME280;60850;52.502;13.426;2024-02-21T06:58:40;101321.44;;;7.65;100.00
56928;BME280;60850;52.502;13.426;2024-02-21T07:01:08;101316.19;;;7.57;100.00
56928;BME280;60850;52.502;13.426;2024-02-21T07:03:36;101315.31;;;7.51;100.00
56928;BME280;60850;52.502;13.426;2024-02-21T07:06:03;101322.44;;;7.47;100.00
56928;BME280;60850;52.502;13.426;2024-02-21T07:08:30;101318.88;;;7.45;100.00
56928;BME280;60850;52.502;13.426;2024-02-21T07:10:57;101325.97;;;7.44;100.00
56928;BME280;60850;52.502;13.426;2024-02-21T07:13:24;101323.28;;;7.49;100.00
56928;BME280;60850;52.502;13.426;2024-02-21T07:15:51;101327.75;;;7.47;100.00
56928;BME280;60850;52.502;13.426;2024-02-21T07:18:20;101320.63;;;7.52;100.00
56928;BME280;60850;52.502;13.426;2024-02-21T07:20:47;101316.19;;;7.53;100.00
56928;BME280;60850;52.502;13.426;2024-02-21T07:23:14;101317.94;;;7.57;100.00
56928;BME280;60850;52.502;13.426;2024-02-21T07:25:41;101318.84;;;7.57;100.00
56928;BME280;60850;52.502;13.426;2024-02-21T07:28:08;101316.22;;;7.54;100.00
56928;BME280;60850;52.502;13.426;2024-02-21T07:30:35;101317.97;;;7.55;100.00
56928;BME280;60850;52.502;13.426;2024-02-21T07:33:02;101313.53;;;7.56;100.00
56928;BME280;60850;52.502;13.426;2024-02-21T07:35:31;101311.72;;;7.64;100.00
56928;BME280;60850;52.502;13.426;2024-02-21T07:37:58;101309.91;;;7.67;100.00
56928;BME280;60850;52.502;13.426;2024-02-21T07:40:25;101308.13;;;7.72;100.00
56928;BME280;60850;52.502;13.426;2024-02-21T07:42:52;101308.16;;;7.69;100.00
56928;BME280;60850;52.502;13.426;2024-02-21T07:45:19;101309.00;;;7.73;100.00
56928;BME280;60850;52.502;13.426;2024-02-21T07:47:49;101307.31;;;7.63;100.00
56928;BME280;60850;52.502;13.426;2024-02-21T07:50:16;101302.00;;;7.64;100.00
56928;BME280;60850;52.502;13.426;2024-02-21T07:52:45;101304.59;;;7.74;100.00
56928;BME280;60850;52.502;13.426;2024-02-21T07:55:12;101305.44;;;7.79;100.00
56928;BME280;60850;52.502;13.426;2024-02-21T07:57:39;101309.88;;;7.74;100.00
56928;BME280;60850;52.502;13.426;2024-02-21T08:00:07;101302.78;;;7.79;100.00
56928;BME280;60850;52.502;13.426;2024-02-21T08:02:35;101300.16;;;7.77;100.00
56928;BME280;60850;52.502;13.426;2024-02-21T08:05:03;101295.72;;;7.82;100.00
56928;BME280;60850;52.502;13.426;2024-02-21T08:07:30;101296.59;;;7.80;100.00
56928;BME280;60850;52.502;13.426;2024-02-21T08:09:59;101297.50;;;7.72;100.00
56928;BME280;60850;52.502;13.426;2024-02-21T08:12:26;101292.19;;;7.79;100.00
56928;BME280;60850;52.502;13.426;2024-02-21T08:14:53;101295.66;;;7.87;100.00
56928;BME280;60850;52.502;13.426;2024-02-21T08:17:20;101293.00;;;7.90;100.00
56928;BME280;60850;52.502;13.426;2024-02-21T08:19:47;101291.25;;;7.86;100.00
56928;BME280;60850;52.502;13.426;2024-02-21T08:22:15;101285.88;;;7.96;100.00
56928;BME280;60850;52.502;13.426;2024-02-21T08:24:42;101292.94;;;7.96;100.00
56928;BME280;60850;52.502;13.426;2024-02-21T08:27:10;101291.19;;;7.96;100.00
56928;BME280;60850;52.502;13.426;2024-02-21T08:29:37;101291.78;;;8.34;100.00
56928;BME280;60850;52.502;13.426;2024-02-21T08:32:05;101290.75;;;8.53;100.00
56928;BME280;60850;52.502;13.426;2024-02-21T08:34:31;101286.25;;;8.61;100.00
56928;BME280;60850;52.502;13.426;2024-02-21T08:37:00;101285.22;;;8.74;100.00
56928;BME280;60850;52.502;13.426;2024-02-21T08:39:26;101283.91;;;9.12;100.00
56928;BME280;60850;52.502;13.426;2024-02-21T08:41:56;101281.41;;;8.98;100.00
56928;BME280;60850;52.502;13.426;2024-02-21T08:44:25;101283.03;;;9.12;100.00
56928;BME280;60850;52.502;13.426;2024-02-21T08:46:52;101278.41;;;9.27;100.00
56928;BME280;60850;52.502;13.426;2024-02-21T08:49:19;101277.75;;;9.08;100.00
56928;BME280;60850;52.502;13.426;2024-02-21T08:51:46;101283.97;;;9.06;100.00
56928;BME280;60850;52.502;13.426;2024-02-21T08:54:13;101278.59;;;9.12;100.00
56928;BME280;60850;52.502;13.426;2024-02-21T08:56:40;101284.47;;;9.37;100.00
56928;BME280;60850;52.502;13.426;2024-02-21T08:59:07;101278.31;;;9.35;100.00
56928;BME280;60850;52.502;13.426;2024-02-21T09:01:36;101279.25;;;9.29;100.00
56928;BME280;60850;52.502;13.426;2024-02-21T09:04:03;101285.41;;;9.34;100.00
56928;BME280;60850;52.502;13.426;2024-02-21T09:06:31;101290.50;;;9.51;100.00
56928;BME280;60850;52.502;13.426;2024-02-21T09:08:59;101286.88;;;9.57;100.00
56928;BME280;60850;52.502;13.426;2024-02-21T09:11:26;101293.28;;;9.45;100.00
56928;BME280;60850;52.502;13.426;2024-02-21T09:13:54;101281.81;;;9.39;100.00
56928;BME280;60850;52.502;13.426;2024-02-21T09:16:21;101270.00;;;9.59;100.00
56928;BME280;60850;52.502;13.426;2024-02-21T09:18:50;101285.91;;;9.62;100.00
56928;BME280;60850;52.502;13.426;2024-02-21T09:21:18;101278.13;;;9.49;100.00
56928;BME280;60850;52.502;13.426;2024-02-21T09:23:45;101273.75;;;9.45;100.00
56928;BME280;60850;52.502;13.426;2024-02-21T09:26:12;101277.84;;;9.69;100.00
56928;BME280;60850;52.502;13.426;2024-02-21T09:28:42;101268.94;;;9.71;100.00
56928;BME280;60850;52.502;13.426;2024-02-21T09:31:09;101265.56;;;9.60;100.00
56928;BME280;60850;52.502;13.426;2024-02-21T09:33:36;101265.56;;;9.60;100.00
56928;BME280;60850;52.502;13.426;2024-02-21T09:36:06;101257.63;;;9.55;100.00
56928;BME280;60850;52.502;13.426;2024-02-21T09:38:33;101259.34;;;9.61;100.00
56928;BME280;60850;52.502;13.426;2024-02-21T09:41:11;101260.16;;;9.66;100.00
56928;BME280;60850;52.502;13.426;2024-02-21T09:43:41;101255.63;;;9.73;100.00
56928;BME280;60850;52.502;13.426;2024-02-21T09:46:13;101262.38;;;9.95;100.00
56928;BME280;60850;52.502;13.426;2024-02-21T09:48:54;101261.41;;;9.99;100.00
56928;BME280;60850;52.502;13.426;2024-02-21T09:51:28;101253.47;;;9.96;100.00
56928;BME280;60850;52.502;13.426;2024-02-21T09:53:58;101250.78;;;9.98;100.00
56928;BME280;60850;52.502;13.426;2024-02-21T09:56:26;101257.00;;;9.98;100.00
56928;BME280;60850;52.502;13.426;2024-02-21T09:58:53;101248.75;;;10.13;100.00
56928;BME280;60850;52.502;13.426;2024-02-21T10:01:20;101259.31;;;10.19;100.00
56928;BME280;60850;52.502;13.426;2024-02-21T10:03:47;101257.47;;;10.22;100.00
56928;BME280;60850;52.502;13.426;2024-02-21T10:06:15;101255.72;;;10.22;100.00
56928;BME280;60850;52.502;13.426;2024-02-21T10:08:43;101264.53;;;10.27;100.00
56928;BME280;60850;52.502;13.426;2024-02-21T10:11:10;101265.47;;;10.22;100.00
56928;BME280;60850;52.502;13.426;2024-02-21T10:13:37;101252.16;;;10.25;100.00
56928;BME280;60850;52.502;13.426;2024-02-21T10:16:06;101255.69;;;10.25;100.00
56928;BME280;60850;52.502;13.426;2024-02-21T10:18:34;101252.41;;;10.08;100.00
56928;BME280;60850;52.502;13.426;2024-02-21T10:21:02;101252.50;;;10.00;100.00
56928;BME280;60850;52.502;13.426;2024-02-21T10:23:42;101252.41;;;10.08;100.00
56928;BME280;60850;52.502;13.426;2024-02-21T10:26:10;101247.94;;;10.10;100.00
56928;BME280;60850;52.502;13.426;2024-02-21T10:28:37;101254.94;;;10.14;100.00
56928;BME280;60850;52.502;13.426;2024-02-21T10:31:08;101256.75;;;10.15;100.00
56928;BME280;60850;52.502;13.426;2024-02-21T10:33:39;101247.94;;;10.10;100.00
56928;BME280;60850;52.502;13.426;2024-02-21T10:36:07;101255.91;;;10.10;100.00
56928;BME280;60850;52.502;13.426;2024-02-21T10:38:37;101261.25;;;10.10;100.00
56928;BME280;60850;52.502;13.426;2024-02-21T10:41:06;101269.06;;;10.22;100.00
56928;BME280;60850;52.502;13.426;2024-02-21T10:43:39;101260.16;;;10.25;100.00
56928;BME280;60850;52.502;13.426;2024-02-21T10:46:07;101242.31;;;10.30;100.00
56928;BME280;60850;52.502;13.426;2024-02-21T10:48:42;101244.03;;;10.32;100.00
56928;BME280;60850;52.502;13.426;2024-02-21T10:51:17;101242.94;;;10.44;100.00
56928;BME280;60850;52.502;13.426;2024-02-21T10:53:50;101234.06;;;10.42;100.00
56928;BME280;60850;52.502;13.426;2024-02-21T10:56:28;101235.16;;;10.32;100.00
56928;BME280;60850;52.502;13.426;2024-02-21T10:58:57;101236.03;;;10.32;100.00
56928;BME280;60850;52.502;13.426;2024-02-21T11:01:25;101236.94;;;10.31;100.00
56928;BME280;60850;52.502;13.426;2024-02-21T11:03:59;101235.22;;;10.27;100.00
56928;BME280;60850;52.502;13.426;2024-02-21T11:06:28;101244.09;;;10.29;100.00
56928;BME280;60850;52.502;13.426;2024-02-21T11:09:00;101237.16;;;10.17;100.00
56928;BME280;60850;52.502;13.426;2024-02-21T11:11:32;101220.22;;;10.23;100.00
56928;BME280;60850;52.502;13.426;2024-02-21T11:14:07;101214.72;;;10.32;100.00
56928;BME280;60850;52.502;13.426;2024-02-21T11:16:38;101212.03;;;10.32;100.00
56928;BME280;60850;52.502;13.426;2024-02-21T11:19:06;101201.91;;;10.53;100.00
56928;BME280;60850;52.502;13.426;2024-02-21T11:21:34;101192.84;;;11.05;100.00
56928;BME280;60850;52.502;13.426;2024-02-21T11:24:02;101185.66;;;11.08;100.00
56928;BME280;60850;52.502;13.426;2024-02-21T11:26:31;101175.78;;;11.12;100.00
56928;BME280;60850;52.502;13.426;2024-02-21T11:28:59;101174.69;;;11.20;100.00
56928;BME280;60850;52.502;13.426;2024-02-21T11:31:26;101176.34;;;11.26;100.00
56928;BME280;60850;52.502;13.426;2024-02-21T11:33:54;101167.81;;;11.50;100.00
56928;BME280;60850;52.502;13.426;2024-02-21T11:36:25;101165.13;;;11.50;100.00
56928;BME280;60850;52.502;13.426;2024-02-21T11:38:52;101162.66;;;11.41;100.00
56928;BME280;60850;52.502;13.426;2024-02-21T11:41:20;101156.72;;;11.67;100.00
56928;BME280;60850;52.502;13.426;2024-02-21T11:43:49;101149.28;;;11.80;100.00
56928;BME280;60850;52.502;13.426;2024-02-21T11:46:18;101145.72;;;11.81;100.00
56928;BME280;60850;52.502;13.426;2024-02-21T11:48:45;101137.00;;;11.73;100.00
56928;BME280;60850;52.502;13.426;2024-02-21T11:51:24;101135.34;;;11.67;100.00
56928;BME280;60850;52.502;13.426;2024-02-21T11:53:52;101124.28;;;11.84;100.00
56928;BME280;60850;52.502;13.426;2024-02-21T11:56:20;101125.78;;;11.94;100.00
56928;BME280;60850;52.502;13.426;2024-02-21T11:58:49;101122.88;;;12.03;100.00
56928;BME280;60850;52.502;13.426;2024-02-21T12:01:17;101120.34;;;11.97;100.00
56928;BME280;60850;52.502;13.426;2024-02-21T12:03:44;101119.94;;;11.78;100.00
56928;BME280;60850;52.502;13.426;2024-02-21T12:06:16;101111.19;;;11.72;100.00
56928;BME280;60850;52.502;13.426;2024-02-21T12:08:47;101110.19;;;11.76;100.00
56928;BME280;60850;52.502;13.426;2024-02-21T12:11:19;101111.59;;;11.92;100.00
56928;BME280;60850;52.502;13.426;2024-02-21T12:13:46;101098.97;;;11.97;100.00
56928;BME280;60850;52.502;13.426;2024-02-21T12:16:16;101099.50;;;12.12;100.00
56928;BME280;60850;52.502;13.426;2024-02-21T12:18:45;101082.78;;;12.03;100.00
56928;BME280;60850;52.502;13.426;2024-02-21T12:21:12;101083.00;;;11.96;100.00
56928;BME280;60850;52.502;13.426;2024-02-21T12:23:39;101075.38;;;12.15;100.00
56928;BME280;60850;52.502;13.426;2024-02-21T12:26:06;101076.84;;;12.26;100.00
56928;BME280;60850;52.502;13.426;2024-02-21T12:28:33;101068.19;;;12.17;100.00
56928;BME280;60850;52.502;13.426;2024-02-21T12:31:01;101058.56;;;12.09;100.00
56928;BME280;60850;52.502;13.426;2024-02-21T12:33:31;101056.53;;;12.19;100.00
56928;BME280;60850;52.502;13.426;2024-02-21T12:35:59;101055.13;;;12.37;100.00
56928;BME280;60850;52.502;13.426;2024-02-21T12:38:25;101056.78;;;12.10;100.00
56928;BME280;60850;52.502;13.426;2024-02-21T12:40:53;101052.72;;;11.95;100.00